sensor_id;sensor_type;location;lat;lon;timestamp;temperature;humidity
63289;DHT22;49412;48.162;-1.978;2023-04-25T00:01:55;9.30;99.90
63289;DHT22;49412;48.162;-1.978;2023-04-25T00:04:21;9.20;99.90
63289;DHT22;49412;48.162;-1.978;2023-04-25T00:06:47;9.20;99.90
63289;DHT22;49412;48.162;-1.978;2023-04-25T00:09:13;9.00;99.90
63289;DHT22;49412;48.162;-1.978;2023-04-25T00:11:39;8.90;99.90
63289;DHT22;49412;48.162;-1.978;2023-04-25T00:14:05;8.90;99.90
63289;DHT22;49412;48.162;-1.978;2023-04-25T00:16:31;8.80;99.90
63289;DHT22;49412;48.162;-1.978;2023-04-25T00:18:59;8.90;99.90
63289;DHT22;49412;48.162;-1.978;2023-04-25T00:21:25;8.90;99.90
63289;DHT22;49412;48.162;-1.978;2023-04-25T00:23:52;8.80;99.90
63289;DHT22;49412;48.162;-1.978;2023-04-25T00:26:18;8.80;99.90
63289;DHT22;49412;48.162;-1.978;2023-04-25T00:28:43;8.70;99.90
63289;DHT22;49412;48.162;-1.978;2023-04-25T00:31:09;8.60;99.90
63289;DHT22;49412;48.162;-1.978;2023-04-25T00:33:35;8.50;99.90
63289;DHT22;49412;48.162;-1.978;2023-04-25T00:36:00;8.50;99.90
63289;DHT22;49412;48.162;-1.978;2023-04-25T00:38:26;8.60;99.90
63289;DHT22;49412;48.162;-1.978;2023-04-25T00:40:52;8.50;99.90
63289;DHT22;49412;48.162;-1.978;2023-04-25T00:43:20;8.50;99.90
63289;DHT22;49412;48.162;-1.978;2023-04-25T00:45:46;8.50;99.90
63289;DHT22;49412;48.162;-1.978;2023-04-25T00:48:13;8.50;99.90
63289;DHT22;49412;48.162;-1.978;2023-04-25T00:50:39;8.50;99.90
63289;DHT22;49412;48.162;-1.978;2023-04-25T00:53:04;8.50;99.90
63289;DHT22;49412;48.162;-1.978;2023-04-25T00:55:30;8.50;99.90
63289;DHT22;49412;48.162;-1.978;2023-04-25T00:57:57;8.50;99.90
63289;DHT22;49412;48.162;-1.978;2023-04-25T01:00:22;8.60;99.90
63289;DHT22;49412;48.162;-1.978;2023-04-25T01:02:48;8.50;99.90
63289;DHT22;49412;48.162;-1.978;2023-04-25T01:05:13;8.50;99.90
63289;DHT22;49412;48.162;-1.978;2023-04-25T01:07:39;8.40;99.90
63289;DHT22;49412;48.162;-1.978;2023-04-25T01:10:06;8.50;99.90
63289;DHT22;49412;48.162;-1.978;2023-04-25T01:12:31;8.40;99.90
63289;DHT22;49412;48.162;-1.978;2023-04-25T01:14:57;8.40;99.90
63289;DHT22;49412;48.162;-1.978;2023-04-25T01:17:23;8.40;99.90
63289;DHT22;49412;48.162;-1.978;2023-04-25T01:19:49;8.30;99.90
63289;DHT22;49412;48.162;-1.978;2023-04-25T01:22:14;8.00;99.90
63289;DHT22;49412;48.162;-1.978;2023-04-25T01:24:40;7.80;99.90
63289;DHT22;49412;48.162;-1.978;2023-04-25T01:27:06;7.80;99.90
63289;DHT22;49412;48.162;-1.978;2023-04-25T01:29:32;7.90;99.90
63289;DHT22;49412;48.162;-1.978;2023-04-25T01:31:58;7.80;99.90
63289;DHT22;49412;48.162;-1.978;2023-04-25T01:34:24;7.80;99.90
63289;DHT22;49412;48.162;-1.978;2023-04-25T01:36:50;8.00;99.90
63289;DHT22;49412;48.162;-1.978;2023-04-25T01:39:16;8.00;99.90
63289;DHT22;49412;48.162;-1.978;2023-04-25T01:41:42;7.90;99.90
63289;DHT22;49412;48.162;-1.978;2023-04-25T01:44:08;7.90;99.90
63289;DHT22;49412;48.162;-1.978;2023-04-25T01:46:34;8.10;99.90
63289;DHT22;49412;48.162;-1.978;2023-04-25T01:49:00;8.20;99.90
63289;DHT22;49412;48.162;-1.978;2023-04-25T01:51:25;8.20;99.90
63289;DHT22;49412;48.162;-1.978;2023-04-25T01:53:51;8.20;99.90
63289;DHT22;49412;48.162;-1.978;2023-04-25T01:56:17;8.10;99.90
63289;DHT22;49412;48.162;-1.978;2023-04-25T01:58:43;8.00;99.90
63289;DHT22;49412;48.162;-1.978;2023-04-25T02:01:08;8.00;99.90
63289;DHT22;49412;48.162;-1.978;2023-04-25T02:03:34;7.80;99.90
63289;DHT22;49412;48.162;-1.978;2023-04-25T02:06:00;7.90;99.90
63289;DHT22;49412;48.162;-1.978;2023-04-25T02:08:25;8.00;99.90
63289;DHT22;49412;48.162;-1.978;2023-04-25T02:10:52;8.00;99.90
63289;DHT22;49412;48.162;-1.978;2023-04-25T02:13:17;8.00;99.90
63289;DHT22;49412;48.162;-1.978;2023-04-25T02:15:43;8.00;99.90
63289;DHT22;49412;48.162;-1.978;2023-04-25T02:18:08;7.90;99.90
63289;DHT22;49412;48.162;-1.978;2023-04-25T02:20:35;7.70;99.90
63289;DHT22;49412;48.162;-1.978;2023-04-25T02:23:01;7.70;99.90
63289;DHT22;49412;48.162;-1.978;2023-04-25T02:25:27;7.60;99.90
63289;DHT22;49412;48.162;-1.978;2023-04-25T02:27:53;7.50;99.90
63289;DHT22;49412;48.162;-1.978;2023-04-25T02:30:19;7.60;99.90
63289;DHT22;49412;48.162;-1.978;2023-04-25T02:32:44;7.70;99.90
63289;DHT22;49412;48.162;-1.978;2023-04-25T02:35:10;7.70;99.90
63289;DHT22;49412;48.162;-1.978;2023-04-25T02:37:37;7.70;99.90
63289;DHT22;49412;48.162;-1.978;2023-04-25T02:40:02;7.50;99.90
63289;DHT22;49412;48.162;-1.978;2023-04-25T02:42:29;7.60;99.90
63289;DHT22;49412;48.162;-1.978;2023-04-25T02:44:55;7.80;99.90
63289;DHT22;49412;48.162;-1.978;2023-04-25T02:47:20;7.80;99.90
63289;DHT22;49412;48.162;-1.978;2023-04-25T02:49:46;7.80;99.90
63289;DHT22;49412;48.162;-1.978;2023-04-25T02:52:12;7.80;99.90
63289;DHT22;49412;48.162;-1.978;2023-04-25T02:54:38;7.80;99.90
63289;DHT22;49412;48.162;-1.978;2023-04-25T02:57:03;7.70;99.90
63289;DHT22;49412;48.162;-1.978;2023-04-25T02:59:29;7.70;99.90
63289;DHT22;49412;48.162;-1.978;2023-04-25T03:01:55;7.70;99.90
63289;DHT22;49412;48.162;-1.978;2023-04-25T03:04:20;7.80;99.90
63289;DHT22;49412;48.162;-1.978;2023-04-25T03:06:49;7.70;99.90
63289;DHT22;49412;48.162;-1.978;2023-04-25T03:09:15;7.50;99.90
63289;DHT22;49412;48.162;-1.978;2023-04-25T03:11:41;7.40;99.90
63289;DHT22;49412;48.162;-1.978;2023-04-25T03:14:06;7.40;99.90
63289;DHT22;49412;48.162;-1.978;2023-04-25T03:16:32;7.50;99.90
63289;DHT22;49412;48.162;-1.978;2023-04-25T03:18:57;7.60;99.90
63289;DHT22;49412;48.162;-1.978;2023-04-25T03:21:23;7.60;99.90
63289;DHT22;49412;48.162;-1.978;2023-04-25T03:23:48;7.60;99.90
63289;DHT22;49412;48.162;-1.978;2023-04-25T03:26:14;7.60;99.90
63289;DHT22;49412;48.162;-1.978;2023-04-25T03:28:40;7.70;99.90
63289;DHT22;49412;48.162;-1.978;2023-04-25T03:31:06;7.70;99.90
63289;DHT22;49412;48.162;-1.978;2023-04-25T03:33:32;7.60;99.90
63289;DHT22;49412;48.162;-1.978;2023-04-25T03:35:57;7.60;99.90
63289;DHT22;49412;48.162;-1.978;2023-04-25T03:38:23;7.60;99.90
63289;DHT22;49412;48.162;-1.978;2023-04-25T03:40:49;7.60;99.90
63289;DHT22;49412;48.162;-1.978;2023-04-25T03:43:16;7.60;99.90
63289;DHT22;49412;48.162;-1.978;2023-04-25T03:45:41;7.70;99.90
63289;DHT22;49412;48.162;-1.978;2023-04-25T03:48:07;7.60;99.90
63289;DHT22;49412;48.162;-1.978;2023-04-25T03:50:32;7.70;99.90
63289;DHT22;49412;48.162;-1.978;2023-04-25T03:52:58;7.70;99.90
63289;DHT22;49412;48.162;-1.978;2023-04-25T03:55:23;7.60;99.90
63289;DHT22;49412;48.162;-1.978;2023-04-25T03:57:49;7.50;99.90
63289;DHT22;49412;48.162;-1.978;2023-04-25T04:00:15;7.40;99.90
63289;DHT22;49412;48.162;-1.978;2023-04-25T04:02:40;7.40;99.90
63289;DHT22;49412;48.162;-1.978;2023-04-25T04:05:06;7.60;99.90
63289;DHT22;49412;48.162;-1.978;2023-04-25T04:07:32;7.70;99.90
63289;DHT22;49412;48.162;-1.978;2023-04-25T04:09:58;7.80;99.90
63289;DHT22;49412;48.162;-1.978;2023-04-25T04:12:24;7.70;99.90
63289;DHT22;49412;48.162;-1.978;2023-04-25T04:14:49;7.70;99.90
63289;DHT22;49412;48.162;-1.978;2023-04-25T04:17:15;7.80;99.90
63289;DHT22;49412;48.162;-1.978;2023-04-25T04:19:41;7.80;99.90
63289;DHT22;49412;48.162;-1.978;2023-04-25T04:22:06;7.60;99.90
63289;DHT22;49412;48.162;-1.978;2023-04-25T04:24:32;7.70;99.90
63289;DHT22;49412;48.162;-1.978;2023-04-25T04:26:58;7.70;99.90
63289;DHT22;49412;48.162;-1.978;2023-04-25T04:29:24;7.60;99.90
63289;DHT22;49412;48.162;-1.978;2023-04-25T04:31:50;7.60;99.90
63289;DHT22;49412;48.162;-1.978;2023-04-25T04:34:19;7.60;99.90
63289;DHT22;49412;48.162;-1.978;2023-04-25T04:36:45;7.60;99.90
63289;DHT22;49412;48.162;-1.978;2023-04-25T04:39:13;7.50;99.90
63289;DHT22;49412;48.162;-1.978;2023-04-25T04:41:39;7.40;99.90
63289;DHT22;49412;48.162;-1.978;2023-04-25T04:44:05;7.50;99.90
63289;DHT22;49412;48.162;-1.978;2023-04-25T04:46:32;7.40;99.90
63289;DHT22;49412;48.162;-1.978;2023-04-25T04:49:04;7.30;99.90
63289;DHT22;49412;48.162;-1.978;2023-04-25T04:51:30;7.20;99.90
63289;DHT22;49412;48.162;-1.978;2023-04-25T04:53:56;7.20;99.90
63289;DHT22;49412;48.162;-1.978;2023-04-25T04:56:24;7.40;99.90
63289;DHT22;49412;48.162;-1.978;2023-04-25T04:58:50;7.60;99.90
63289;DHT22;49412;48.162;-1.978;2023-04-25T05:01:16;7.60;99.90
63289;DHT22;49412;48.162;-1.978;2023-04-25T05:03:42;7.60;99.90
63289;DHT22;49412;48.162;-1.978;2023-04-25T05:06:07;7.60;99.90
63289;DHT22;49412;48.162;-1.978;2023-04-25T05:08:34;7.50;99.90
63289;DHT22;49412;48.162;-1.978;2023-04-25T05:10:59;7.40;99.90
63289;DHT22;49412;48.162;-1.978;2023-04-25T05:13:25;7.40;99.90
63289;DHT22;49412;48.162;-1.978;2023-04-25T05:15:50;7.50;99.90
63289;DHT22;49412;48.162;-1.978;2023-04-25T05:18:16;7.60;99.90
63289;DHT22;49412;48.162;-1.978;2023-04-25T05:20:41;7.70;99.90
63289;DHT22;49412;48.162;-1.978;2023-04-25T05:23:07;7.70;99.90
63289;DHT22;49412;48.162;-1.978;2023-04-25T05:25:33;7.80;99.90
63289;DHT22;49412;48.162;-1.978;2023-04-25T05:27:58;7.90;99.90
63289;DHT22;49412;48.162;-1.978;2023-04-25T05:30:24;8.00;99.90
63289;DHT22;49412;48.162;-1.978;2023-04-25T05:32:50;7.90;99.90
63289;DHT22;49412;48.162;-1.978;2023-04-25T05:35:16;7.70;99.90
63289;DHT22;49412;48.162;-1.978;2023-04-25T05:37:41;7.50;99.90
63289;DHT22;49412;48.162;-1.978;2023-04-25T05:40:08;7.50;99.90
63289;DHT22;49412;48.162;-1.978;2023-04-25T05:42:34;7.40;99.90
63289;DHT22;49412;48.162;-1.978;2023-04-25T05:44:59;7.60;99.90
63289;DHT22;49412;48.162;-1.978;2023-04-25T05:47:26;7.70;99.90
63289;DHT22;49412;48.162;-1.978;2023-04-25T05:49:51;7.80;99.90
63289;DHT22;49412;48.162;-1.978;2023-04-25T05:52:17;7.70;99.90
63289;DHT22;49412;48.162;-1.978;2023-04-25T05:54:42;7.80;99.90
63289;DHT22;49412;48.162;-1.978;2023-04-25T05:57:08;8.00;99.90
63289;DHT22;49412;48.162;-1.978;2023-04-25T05:59:33;8.20;99.90
63289;DHT22;49412;48.162;-1.978;2023-04-25T06:01:59;8.30;99.90
63289;DHT22;49412;48.162;-1.978;2023-04-25T06:04:26;8.30;99.90
63289;DHT22;49412;48.162;-1.978;2023-04-25T06:06:51;8.40;99.90
63289;DHT22;49412;48.162;-1.978;2023-04-25T06:09:17;8.50;99.90
63289;DHT22;49412;48.162;-1.978;2023-04-25T06:11:42;8.60;99.90
63289;DHT22;49412;48.162;-1.978;2023-04-25T06:14:08;8.60;99.90
63289;DHT22;49412;48.162;-1.978;2023-04-25T06:16:33;8.60;99.90
63289;DHT22;49412;48.162;-1.978;2023-04-25T06:18:59;8.70;99.90
63289;DHT22;49412;48.162;-1.978;2023-04-25T06:21:24;9.00;99.90
63289;DHT22;49412;48.162;-1.978;2023-04-25T06:23:50;9.20;99.90
63289;DHT22;49412;48.162;-1.978;2023-04-25T06:26:16;9.30;99.90
63289;DHT22;49412;48.162;-1.978;2023-04-25T06:28:42;9.30;99.90
63289;DHT22;49412;48.162;-1.978;2023-04-25T06:31:07;9.50;99.90
63289;DHT22;49412;48.162;-1.978;2023-04-25T06:33:33;9.70;99.90
63289;DHT22;49412;48.162;-1.978;2023-04-25T06:35:58;9.80;99.90
63289;DHT22;49412;48.162;-1.978;2023-04-25T06:38:24;10.10;99.90
63289;DHT22;49412;48.162;-1.978;2023-04-25T06:40:50;10.40;99.90
63289;DHT22;49412;48.162;-1.978;2023-04-25T06:43:15;10.50;99.90
63289;DHT22;49412;48.162;-1.978;2023-04-25T06:45:41;10.70;99.90
63289;DHT22;49412;48.162;-1.978;2023-04-25T06:48:07;10.90;99.90
63289;DHT22;49412;48.162;-1.978;2023-04-25T06:50:33;11.30;99.90
63289;DHT22;49412;48.162;-1.978;2023-04-25T06:52:59;11.60;99.90
63289;DHT22;49412;48.162;-1.978;2023-04-25T06:55:26;12.00;99.90
63289;DHT22;49412;48.162;-1.978;2023-04-25T06:57:52;12.80;99.90
63289;DHT22;49412;48.162;-1.978;2023-04-25T07:00:18;13.60;99.90
63289;DHT22;49412;48.162;-1.978;2023-04-25T07:02:44;13.60;99.90
63289;DHT22;49412;48.162;-1.978;2023-04-25T07:05:10;13.50;99.90
63289;DHT22;49412;48.162;-1.978;2023-04-25T07:07:36;13.90;99.90
63289;DHT22;49412;48.162;-1.978;2023-04-25T07:10:03;14.10;99.90
63289;DHT22;49412;48.162;-1.978;2023-04-25T07:12:29;14.50;99.90
63289;DHT22;49412;48.162;-1.978;2023-04-25T07:14:55;14.90;99.90
63289;DHT22;49412;48.162;-1.978;2023-04-25T07:17:20;15.30;99.90
63289;DHT22;49412;48.162;-1.978;2023-04-25T07:19:46;15.50;99.90
63289;DHT22;49412;48.162;-1.978;2023-04-25T07:22:12;15.50;99.90
63289;DHT22;49412;48.162;-1.978;2023-04-25T07:24:37;15.50;99.90
63289;DHT22;49412;48.162;-1.978;2023-04-25T07:27:03;15.30;99.90
63289;DHT22;49412;48.162;-1.978;2023-04-25T07:29:29;15.40;99.90
63289;DHT22;49412;48.162;-1.978;2023-04-25T07:31:55;15.10;99.90
63289;DHT22;49412;48.162;-1.978;2023-04-25T07:34:21;15.00;99.90
63289;DHT22;49412;48.162;-1.978;2023-04-25T07:36:46;14.70;99.90
63289;DHT22;49412;48.162;-1.978;2023-04-25T07:39:12;14.40;99.90
63289;DHT22;49412;48.162;-1.978;2023-04-25T07:41:37;14.50;99.90
63289;DHT22;49412;48.162;-1.978;2023-04-25T07:44:03;14.90;99.90
63289;DHT22;49412;48.162;-1.978;2023-04-25T07:46:28;15.40;99.90
63289;DHT22;49412;48.162;-1.978;2023-04-25T07:48:54;15.50;99.90
63289;DHT22;49412;48.162;-1.978;2023-04-25T07:51:20;15.50;99.90
63289;DHT22;49412;48.162;-1.978;2023-04-25T07:53:47;15.60;99.90
63289;DHT22;49412;48.162;-1.978;2023-04-25T07:56:13;15.70;99.90
63289;DHT22;49412;48.162;-1.978;2023-04-25T07:58:38;15.70;99.90
63289;DHT22;49412;48.162;-1.978;2023-04-25T08:01:04;15.60;99.90
63289;DHT22;49412;48.162;-1.978;2023-04-25T08:03:29;15.30;99.90
63289;DHT22;49412;48.162;-1.978;2023-04-25T08:05:55;15.40;99.90
63289;DHT22;49412;48.162;-1.978;2023-04-25T08:08:21;14.80;99.90
63289;DHT22;49412;48.162;-1.978;2023-04-25T08:10:47;14.40;99.90
63289;DHT22;49412;48.162;-1.978;2023-04-25T08:13:16;14.20;99.90
63289;DHT22;49412;48.162;-1.978;2023-04-25T08:15:42;14.20;99.90
63289;DHT22;49412;48.162;-1.978;2023-04-25T08:18:07;14.40;99.90
63289;DHT22;49412;48.162;-1.978;2023-04-25T08:20:33;14.60;99.90
63289;DHT22;49412;48.162;-1.978;2023-04-25T08:22:59;15.40;99.90
63289;DHT22;49412;48.162;-1.978;2023-04-25T08:25:24;16.70;99.90
63289;DHT22;49412;48.162;-1.978;2023-04-25T08:27:50;16.70;99.90
63289;DHT22;49412;48.162;-1.978;2023-04-25T08:30:16;16.70;99.90
63289;DHT22;49412;48.162;-1.978;2023-04-25T08:32:41;16.60;99.90
63289;DHT22;49412;48.162;-1.978;2023-04-25T08:35:07;16.60;99.90
63289;DHT22;49412;48.162;-1.978;2023-04-25T08:37:33;16.80;99.90
63289;DHT22;49412;48.162;-1.978;2023-04-25T08:39:58;17.40;99.90
63289;DHT22;49412;48.162;-1.978;2023-04-25T08:42:24;18.70;99.90
63289;DHT22;49412;48.162;-1.978;2023-04-25T08:44:50;18.80;99.90
63289;DHT22;49412;48.162;-1.978;2023-04-25T08:47:19;18.70;99.90
63289;DHT22;49412;48.162;-1.978;2023-04-25T08:49:46;18.40;99.90
63289;DHT22;49412;48.162;-1.978;2023-04-25T08:52:13;18.40;99.90
63289;DHT22;49412;48.162;-1.978;2023-04-25T08:54:41;19.00;99.90
63289;DHT22;49412;48.162;-1.978;2023-04-25T08:57:10;19.00;99.90
63289;DHT22;49412;48.162;-1.978;2023-04-25T08:59:37;18.80;99.90
63289;DHT22;49412;48.162;-1.978;2023-04-25T09:02:04;19.60;99.90
63289;DHT22;49412;48.162;-1.978;2023-04-25T09:04:31;20.70;99.90
63289;DHT22;49412;48.162;-1.978;2023-04-25T09:06:56;20.90;99.90
63289;DHT22;49412;48.162;-1.978;2023-04-25T09:09:22;20.60;99.90
63289;DHT22;49412;48.162;-1.978;2023-04-25T09:11:48;20.70;99.90
63289;DHT22;49412;48.162;-1.978;2023-04-25T09:14:20;20.60;99.90
63289;DHT22;49412;48.162;-1.978;2023-04-25T09:19:24;20.00;99.90
63289;DHT22;49412;48.162;-1.978;2023-04-25T09:21:51;20.20;99.90
63289;DHT22;49412;48.162;-1.978;2023-04-25T09:24:19;21.00;99.90
63289;DHT22;49412;48.162;-1.978;2023-04-25T09:26:55;20.10;99.90
63289;DHT22;49412;48.162;-1.978;2023-04-25T09:29:20;21.70;99.90
63289;DHT22;49412;48.162;-1.978;2023-04-25T09:31:54;20.80;99.90
63289;DHT22;49412;48.162;-1.978;2023-04-25T09:34:39;19.10;99.90
63289;DHT22;49412;48.162;-1.978;2023-04-25T09:37:05;22.40;99.90
63289;DHT22;49412;48.162;-1.978;2023-04-25T09:39:32;24.40;99.90
63289;DHT22;49412;48.162;-1.978;2023-04-25T09:41:58;25.30;99.90
63289;DHT22;49412;48.162;-1.978;2023-04-25T09:44:24;24.40;99.90
63289;DHT22;49412;48.162;-1.978;2023-04-25T09:46:50;21.40;99.90
63289;DHT22;49412;48.162;-1.978;2023-04-25T09:49:22;19.60;99.90
63289;DHT22;49412;48.162;-1.978;2023-04-25T09:51:57;19.00;99.90
63289;DHT22;49412;48.162;-1.978;2023-04-25T09:54:26;19.10;99.90
63289;DHT22;49412;48.162;-1.978;2023-04-25T09:56:52;23.50;99.90
63289;DHT22;49412;48.162;-1.978;2023-04-25T09:59:19;23.90;99.90
63289;DHT22;49412;48.162;-1.978;2023-04-25T10:01:45;23.70;99.90
63289;DHT22;49412;48.162;-1.978;2023-04-25T10:04:11;23.30;99.90
63289;DHT22;49412;48.162;-1.978;2023-04-25T10:06:37;22.80;99.90
63289;DHT22;49412;48.162;-1.978;2023-04-25T10:09:03;22.10;99.90
63289;DHT22;49412;48.162;-1.978;2023-04-25T10:11:30;25.00;99.90
63289;DHT22;49412;48.162;-1.978;2023-04-25T10:13:56;26.90;99.90
63289;DHT22;49412;48.162;-1.978;2023-04-25T10:16:21;24.30;99.90
63289;DHT22;49412;48.162;-1.978;2023-04-25T10:18:47;21.70;99.90
63289;DHT22;49412;48.162;-1.978;2023-04-25T10:21:13;20.30;99.90
63289;DHT22;49412;48.162;-1.978;2023-04-25T10:23:39;20.30;99.90
63289;DHT22;49412;48.162;-1.978;2023-04-25T10:26:05;20.60;99.90
63289;DHT22;49412;48.162;-1.978;2023-04-25T10:28:54;20.60;99.90
63289;DHT22;49412;48.162;-1.978;2023-04-25T10:31:18;21.20;99.90
63289;DHT22;49412;48.162;-1.978;2023-04-25T10:33:43;24.10;99.90
63289;DHT22;49412;48.162;-1.978;2023-04-25T10:36:13;25.20;99.90
63289;DHT22;49412;48.162;-1.978;2023-04-25T10:38:39;22.80;99.90
63289;DHT22;49412;48.162;-1.978;2023-04-25T10:41:05;21.00;99.90
63289;DHT22;49412;48.162;-1.978;2023-04-25T10:43:34;20.70;99.90
63289;DHT22;49412;48.162;-1.978;2023-04-25T10:46:01;25.60;99.90
63289;DHT22;49412;48.162;-1.978;2023-04-25T10:48:27;26.40;99.90
63289;DHT22;49412;48.162;-1.978;2023-04-25T10:51:08;27.90;99.90
63289;DHT22;49412;48.162;-1.978;2023-04-25T10:53:35;28.20;99.90
63289;DHT22;49412;48.162;-1.978;2023-04-25T10:56:08;31.40;99.90
63289;DHT22;49412;48.162;-1.978;2023-04-25T10:58:34;29.40;99.90
63289;DHT22;49412;48.162;-1.978;2023-04-25T11:01:00;30.60;99.90
63289;DHT22;49412;48.162;-1.978;2023-04-25T11:03:26;34.20;99.90
63289;DHT22;49412;48.162;-1.978;2023-04-25T11:05:52;30.90;99.90
63289;DHT22;49412;48.162;-1.978;2023-04-25T11:08:20;28.10;99.90
63289;DHT22;49412;48.162;-1.978;2023-04-25T11:10:50;27.20;99.90
63289;DHT22;49412;48.162;-1.978;2023-04-25T11:13:15;24.00;99.90
63289;DHT22;49412;48.162;-1.978;2023-04-25T11:15:42;24.60;99.90
63289;DHT22;49412;48.162;-1.978;2023-04-25T11:18:07;24.30;99.90
63289;DHT22;49412;48.162;-1.978;2023-04-25T11:20:33;23.50;99.90
63289;DHT22;49412;48.162;-1.978;2023-04-25T11:22:58;23.60;99.90
63289;DHT22;49412;48.162;-1.978;2023-04-25T11:25:25;23.00;99.90
63289;DHT22;49412;48.162;-1.978;2023-04-25T11:27:55;22.10;99.90
63289;DHT22;49412;48.162;-1.978;2023-04-25T11:30:24;22.20;99.90
63289;DHT22;49412;48.162;-1.978;2023-04-25T11:32:50;22.50;99.90
63289;DHT22;49412;48.162;-1.978;2023-04-25T11:35:17;21.90;99.90
63289;DHT22;49412;48.162;-1.978;2023-04-25T11:37:43;21.50;99.90
63289;DHT22;49412;48.162;-1.978;2023-04-25T11:40:09;21.50;99.90
63289;DHT22;49412;48.162;-1.978;2023-04-25T11:42:38;21.90;99.90
63289;DHT22;49412;48.162;-1.978;2023-04-25T11:45:05;22.40;99.90
63289;DHT22;49412;48.162;-1.978;2023-04-25T11:47:31;23.30;99.90
63289;DHT22;49412;48.162;-1.978;2023-04-25T11:49:57;26.60;99.90
63289;DHT22;49412;48.162;-1.978;2023-04-25T11:52:23;26.10;99.90
63289;DHT22;49412;48.162;-1.978;2023-04-25T11:54:49;24.80;99.90
63289;DHT22;49412;48.162;-1.978;2023-04-25T11:57:15;23.00;99.90
63289;DHT22;49412;48.162;-1.978;2023-04-25T11:59:43;21.70;99.90
63289;DHT22;49412;48.162;-1.978;2023-04-25T12:02:23;20.70;99.90
63289;DHT22;49412;48.162;-1.978;2023-04-25T12:04:49;20.90;99.90
63289;DHT22;49412;48.162;-1.978;2023-04-25T12:07:14;20.60;99.90
63289;DHT22;49412;48.162;-1.978;2023-04-25T12:09:40;20.40;99.90
63289;DHT22;49412;48.162;-1.978;2023-04-25T12:12:09;20.50;99.90
63289;DHT22;49412;48.162;-1.978;2023-04-25T12:14:35;20.20;99.90
63289;DHT22;49412;48.162;-1.978;2023-04-25T12:17:01;20.20;99.90
63289;DHT22;49412;48.162;-1.978;2023-04-25T12:19:34;22.10;99.90
63289;DHT22;49412;48.162;-1.978;2023-04-25T12:22:00;24.60;99.90
63289;DHT22;49412;48.162;-1.978;2023-04-25T12:24:26;23.00;99.90
63289;DHT22;49412;48.162;-1.978;2023-04-25T12:27:02;20.60;99.90
63289;DHT22;49412;48.162;-1.978;2023-04-25T12:29:29;20.60;99.90
63289;DHT22;49412;48.162;-1.978;2023-04-25T12:31:55;20.70;99.90
63289;DHT22;49412;48.162;-1.978;2023-04-25T12:34:21;21.00;99.90
63289;DHT22;49412;48.162;-1.978;2023-04-25T12:36:47;20.30;99.90
63289;DHT22;49412;48.162;-1.978;2023-04-25T12:39:22;19.10;99.90
63289;DHT22;49412;48.162;-1.978;2023-04-25T12:41:48;18.70;99.90
63289;DHT22;49412;48.162;-1.978;2023-04-25T12:44:14;19.20;99.90
63289;DHT22;49412;48.162;-1.978;2023-04-25T12:46:40;20.10;99.90
63289;DHT22;49412;48.162;-1.978;2023-04-25T12:49:06;24.70;99.90
63289;DHT22;49412;48.162;-1.978;2023-04-25T12:51:33;26.00;99.90
63289;DHT22;49412;48.162;-1.978;2023-04-25T12:53:59;26.30;99.90
63289;DHT22;49412;48.162;-1.978;2023-04-25T12:56:25;25.50;99.90
63289;DHT22;49412;48.162;-1.978;2023-04-25T12:58:51;24.20;99.90
63289;DHT22;49412;48.162;-1.978;2023-04-25T13:01:17;23.80;99.90
63289;DHT22;49412;48.162;-1.978;2023-04-25T13:03:43;22.70;99.90
63289;DHT22;49412;48.162;-1.978;2023-04-25T13:06:08;21.00;99.90
63289;DHT22;49412;48.162;-1.978;2023-04-25T13:08:34;20.20;99.90
63289;DHT22;49412;48.162;-1.978;2023-04-25T13:11:02;19.60;99.90
63289;DHT22;49412;48.162;-1.978;2023-04-25T13:13:28;20.40;99.90
63289;DHT22;49412;48.162;-1.978;2023-04-25T13:15:53;21.20;99.90
63289;DHT22;49412;48.162;-1.978;2023-04-25T13:18:19;21.80;99.90
63289;DHT22;49412;48.162;-1.978;2023-04-25T13:20:45;23.30;99.90
63289;DHT22;49412;48.162;-1.978;2023-04-25T13:23:11;23.60;99.90
63289;DHT22;49412;48.162;-1.978;2023-04-25T13:25:37;23.80;99.90
63289;DHT22;49412;48.162;-1.978;2023-04-25T13:28:03;22.40;99.90
63289;DHT22;49412;48.162;-1.978;2023-04-25T13:30:28;21.70;99.90
63289;DHT22;49412;48.162;-1.978;2023-04-25T13:32:54;21.20;99.90
63289;DHT22;49412;48.162;-1.978;2023-04-25T13:35:22;21.00;99.90
63289;DHT22;49412;48.162;-1.978;2023-04-25T13:37:47;20.60;99.90
63289;DHT22;49412;48.162;-1.978;2023-04-25T13:40:13;20.70;99.90
63289;DHT22;49412;48.162;-1.978;2023-04-25T13:42:39;20.60;99.90
63289;DHT22;49412;48.162;-1.978;2023-04-25T13:45:06;20.20;99.90
63289;DHT22;49412;48.162;-1.978;2023-04-25T13:47:31;19.90;99.90
63289;DHT22;49412;48.162;-1.978;2023-04-25T13:49:57;20.30;99.90
63289;DHT22;49412;48.162;-1.978;2023-04-25T13:52:23;20.30;99.90
63289;DHT22;49412;48.162;-1.978;2023-04-25T13:54:49;20.60;99.90
63289;DHT22;49412;48.162;-1.978;2023-04-25T13:57:15;20.90;99.90
63289;DHT22;49412;48.162;-1.978;2023-04-25T13:59:41;21.20;99.90
63289;DHT22;49412;48.162;-1.978;2023-04-25T14:02:07;21.80;99.90
63289;DHT22;49412;48.162;-1.978;2023-04-25T14:04:32;22.50;99.90
63289;DHT22;49412;48.162;-1.978;2023-04-25T14:06:58;23.10;99.90
63289;DHT22;49412;48.162;-1.978;2023-04-25T14:09:24;21.90;99.90
63289;DHT22;49412;48.162;-1.978;2023-04-25T14:11:51;20.80;99.90
63289;DHT22;49412;48.162;-1.978;2023-04-25T14:14:17;20.20;99.90
63289;DHT22;49412;48.162;-1.978;2023-04-25T14:16:43;19.70;99.90
63289;DHT22;49412;48.162;-1.978;2023-04-25T14:19:09;19.60;99.90
63289;DHT22;49412;48.162;-1.978;2023-04-25T14:21:34;19.80;99.90
63289;DHT22;49412;48.162;-1.978;2023-04-25T14:24:00;19.90;99.90
63289;DHT22;49412;48.162;-1.978;2023-04-25T14:26:26;19.10;99.90
63289;DHT22;49412;48.162;-1.978;2023-04-25T14:28:51;18.80;99.90
63289;DHT22;49412;48.162;-1.978;2023-04-25T14:31:17;18.50;99.90
63289;DHT22;49412;48.162;-1.978;2023-04-25T14:33:43;18.70;99.90
63289;DHT22;49412;48.162;-1.978;2023-04-25T14:36:08;18.60;99.90
63289;DHT22;49412;48.162;-1.978;2023-04-25T14:38:34;18.60;99.90
63289;DHT22;49412;48.162;-1.978;2023-04-25T14:41:00;18.50;99.90
63289;DHT22;49412;48.162;-1.978;2023-04-25T14:43:25;18.70;99.90
63289;DHT22;49412;48.162;-1.978;2023-04-25T14:45:51;19.30;99.90
63289;DHT22;49412;48.162;-1.978;2023-04-25T14:48:17;19.20;99.90
63289;DHT22;49412;48.162;-1.978;2023-04-25T14:50:44;19.20;99.90
63289;DHT22;49412;48.162;-1.978;2023-04-25T14:53:10;19.20;99.90
63289;DHT22;49412;48.162;-1.978;2023-04-25T14:55:36;18.50;99.90
63289;DHT22;49412;48.162;-1.978;2023-04-25T14:58:01;18.50;99.90
63289;DHT22;49412;48.162;-1.978;2023-04-25T15:00:27;18.70;99.90
63289;DHT22;49412;48.162;-1.978;2023-04-25T15:02:53;18.90;99.90
63289;DHT22;49412;48.162;-1.978;2023-04-25T15:05:18;18.80;99.90
63289;DHT22;49412;48.162;-1.978;2023-04-25T15:07:44;17.70;99.90
63289;DHT22;49412;48.162;-1.978;2023-04-25T15:10:10;17.50;99.90
63289;DHT22;49412;48.162;-1.978;2023-04-25T15:12:41;17.50;99.90
63289;DHT22;49412;48.162;-1.978;2023-04-25T15:15:07;17.60;99.90
63289;DHT22;49412;48.162;-1.978;2023-04-25T15:17:45;17.80;99.90
63289;DHT22;49412;48.162;-1.978;2023-04-25T15:20:11;17.70;99.90